sensor_id;sensor_type;location;lat;lon;timestamp;P1;durP1;ratioP1;P2;durP2;ratioP2
70927;SDS011;58587;53.034;18.576;2023-02-02T06:22:57;50.53;;;30.55;;
70927;SDS011;58587;53.034;18.576;2023-02-02T06:25:23;36.77;;;10.00;;
70927;SDS011;58587;53.034;18.576;2023-02-02T06:27:48;24.75;;;7.05;;
70927;SDS011;58587;53.034;18.576;2023-02-02T06:30:14;25.87;;;5.57;;
70927;SDS011;58587;53.034;18.576;2023-02-02T06:32:40;34.97;;;8.52;;
70927;SDS011;58587;53.034;18.576;2023-02-02T06:35:05;26.67;;;6.07;;
70927;SDS011;58587;53.034;18.576;2023-02-02T06:37:31;38.65;;;8.32;;
70927;SDS011;58587;53.034;18.576;2023-02-02T06:39:58;39.55;;;14.27;;
70927;SDS011;58587;53.034;18.576;2023-02-02T06:42:23;11.73;;;4.57;;
70927;SDS011;58587;53.034;18.576;2023-02-02T06:44:49;25.60;;;5.73;;
70927;SDS011;58587;53.034;18.576;2023-02-02T06:47:14;9.80;;;3.40;;
70927;SDS011;58587;53.034;18.576;2023-02-02T06:49:39;6.78;;;2.90;;
70927;SDS011;58587;53.034;18.576;2023-02-02T06:52:05;10.18;;;3.22;;
70927;SDS011;58587;53.034;18.576;2023-02-02T06:54:31;4.73;;;2.10;;
70927;SDS011;58587;53.034;18.576;2023-02-02T06:56:56;7.30;;;2.53;;
70927;SDS011;58587;53.034;18.576;2023-02-02T06:59:22;15.35;;;4.85;;
70927;SDS011;58587;53.034;18.576;2023-02-02T07:01:48;20.00;;;5.03;;
70927;SDS011;58587;53.034;18.576;2023-02-02T07:04:15;17.40;;;4.60;;
70927;SDS011;58587;53.034;18.576;2023-02-02T07:06:41;16.93;;;9.03;;
70927;SDS011;58587;53.034;18.576;2023-02-02T07:09:06;56.85;;;33.30;;
70927;SDS011;58587;53.034;18.576;2023-02-02T07:11:32;9.52;;;4.35;;
70927;SDS011;58587;53.034;18.576;2023-02-02T07:13:59;13.77;;;5.53;;
70927;SDS011;58587;53.034;18.576;2023-02-02T07:16:25;7.70;;;3.00;;
70927;SDS011;58587;53.034;18.576;2023-02-02T07:18:50;9.23;;;2.97;;
70927;SDS011;58587;53.034;18.576;2023-02-02T07:21:20;43.77;;;7.87;;
70927;SDS011;58587;53.034;18.576;2023-02-02T07:23:46;7.00;;;2.65;;
70927;SDS011;58587;53.034;18.576;2023-02-02T07:26:12;25.07;;;6.57;;
70927;SDS011;58587;53.034;18.576;2023-02-02T07:28:39;16.88;;;6.28;;
70927;SDS011;58587;53.034;18.576;2023-02-02T07:31:12;15.55;;;6.25;;
70927;SDS011;58587;53.034;18.576;2023-02-02T07:33:42;9.15;;;4.88;;
70927;SDS011;58587;53.034;18.576;2023-02-02T07:36:09;13.67;;;4.83;;
70927;SDS011;58587;53.034;18.576;2023-02-02T07:38:35;8.65;;;3.78;;
70927;SDS011;58587;53.034;18.576;2023-02-02T07:41:01;6.55;;;2.50;;
70927;SDS011;58587;53.034;18.576;2023-02-02T07:43:27;42.20;;;8.60;;
70927;SDS011;58587;53.034;18.576;2023-02-02T07:45:52;20.23;;;4.90;;
70927;SDS011;58587;53.034;18.576;2023-02-02T07:48:17;7.45;;;2.05;;
70927;SDS011;58587;53.034;18.576;2023-02-02T07:50:43;64.70;;;25.75;;
70927;SDS011;58587;53.034;18.576;2023-02-02T07:53:08;20.63;;;12.37;;
70927;SDS011;58587;53.034;18.576;2023-02-02T07:55:33;16.17;;;7.87;;
70927;SDS011;58587;53.034;18.576;2023-02-02T07:57:59;19.10;;;6.50;;
70927;SDS011;58587;53.034;18.576;2023-02-02T08:00:25;15.98;;;4.82;;
70927;SDS011;58587;53.034;18.576;2023-02-02T08:02:51;2.97;;;1.70;;
70927;SDS011;58587;53.034;18.576;2023-02-02T08:05:16;5.80;;;2.63;;
70927;SDS011;58587;53.034;18.576;2023-02-02T08:07:41;8.83;;;3.37;;
70927;SDS011;58587;53.034;18.576;2023-02-02T08:10:08;18.60;;;4.80;;
70927;SDS011;58587;53.034;18.576;2023-02-02T08:12:34;21.67;;;5.53;;
70927;SDS011;58587;53.034;18.576;2023-02-02T08:14:59;24.80;;;5.17;;
70927;SDS011;58587;53.034;18.576;2023-02-02T08:17:24;21.37;;;5.33;;
70927;SDS011;58587;53.034;18.576;2023-02-02T08:19:50;24.87;;;5.53;;
70927;SDS011;58587;53.034;18.576;2023-02-02T08:22:15;9.13;;;2.63;;
70927;SDS011;58587;53.034;18.576;2023-02-02T08:24:40;16.00;;;5.90;;
70927;SDS011;58587;53.034;18.576;2023-02-02T08:27:06;8.68;;;2.90;;
70927;SDS011;58587;53.034;18.576;2023-02-02T08:29:33;44.75;;;9.02;;
70927;SDS011;58587;53.034;18.576;2023-02-02T08:31:59;38.80;;;14.75;;
70927;SDS011;58587;53.034;18.576;2023-02-02T08:34:25;8.07;;;2.77;;
70927;SDS011;58587;53.034;18.576;2023-02-02T08:36:51;19.48;;;10.45;;
70927;SDS011;58587;53.034;18.576;2023-02-02T08:39:16;13.75;;;9.55;;
70927;SDS011;58587;53.034;18.576;2023-02-02T08:41:41;48.80;;;30.00;;
70927;SDS011;58587;53.034;18.576;2023-02-02T08:44:07;6.60;;;3.53;;
70927;SDS011;58587;53.034;18.576;2023-02-02T08:46:34;6.00;;;2.20;;
70927;SDS011;58587;53.034;18.576;2023-02-02T08:48:59;4.80;;;2.57;;
70927;SDS011;58587;53.034;18.576;2023-02-02T08:51:25;5.17;;;2.10;;
70927;SDS011;58587;53.034;18.576;2023-02-02T08:53:50;17.20;;;2.97;;
70927;SDS011;58587;53.034;18.576;2023-02-02T08:56:16;5.63;;;2.30;;
70927;SDS011;58587;53.034;18.576;2023-02-02T08:58:47;23.60;;;6.50;;
70927;SDS011;58587;53.034;18.576;2023-02-02T09:01:15;14.85;;;4.25;;
70927;SDS011;58587;53.034;18.576;2023-02-02T09:03:45;8.20;;;2.90;;
70927;SDS011;58587;53.034;18.576;2023-02-02T09:06:12;5.50;;;2.30;;
70927;SDS011;58587;53.034;18.576;2023-02-02T09:08:42;7.10;;;2.95;;
70927;SDS011;58587;53.034;18.576;2023-02-02T09:11:09;39.00;;;9.20;;
70927;SDS011;58587;53.034;18.576;2023-02-02T09:13:37;12.13;;;5.73;;
70927;SDS011;58587;53.034;18.576;2023-02-02T09:16:04;45.70;;;9.27;;
70927;SDS011;58587;53.034;18.576;2023-02-02T09:18:32;19.77;;;4.90;;
70927;SDS011;58587;53.034;18.576;2023-02-02T09:20:58;16.40;;;4.60;;
70927;SDS011;58587;53.034;18.576;2023-02-02T09:23:24;8.90;;;3.30;;
70927;SDS011;58587;53.034;18.576;2023-02-02T09:25:51;44.33;;;11.27;;
70927;SDS011;58587;53.034;18.576;2023-02-02T09:28:16;10.67;;;3.43;;
70927;SDS011;58587;53.034;18.576;2023-02-02T09:30:41;8.20;;;3.63;;
70927;SDS011;58587;53.034;18.576;2023-02-02T09:33:06;22.30;;;15.03;;
70927;SDS011;58587;53.034;18.576;2023-02-02T09:35:32;7.75;;;4.22;;
70927;SDS011;58587;53.034;18.576;2023-02-02T09:37:57;17.70;;;7.03;;
70927;SDS011;58587;53.034;18.576;2023-02-02T09:40:22;14.47;;;6.43;;
70927;SDS011;58587;53.034;18.576;2023-02-02T09:42:54;19.08;;;7.32;;
70927;SDS011;58587;53.034;18.576;2023-02-02T09:45:50;8.87;;;5.33;;
70927;SDS011;58587;53.034;18.576;2023-02-02T09:48:24;10.27;;;4.03;;
70927;SDS011;58587;53.034;18.576;2023-02-02T09:50:56;12.27;;;3.97;;
70927;SDS011;58587;53.034;18.576;2023-02-02T09:56:15;16.05;;;4.97;;
70927;SDS011;58587;53.034;18.576;2023-02-02T09:58:53;26.83;;;6.53;;
70927;SDS011;58587;53.034;18.576;2023-02-02T10:01:22;11.07;;;3.35;;
70927;SDS011;58587;53.034;18.576;2023-02-02T10:03:57;17.05;;;4.55;;
70927;SDS011;58587;53.034;18.576;2023-02-02T10:06:31;19.85;;;4.47;;
70927;SDS011;58587;53.034;18.576;2023-02-02T10:09:02;20.75;;;4.57;;
70927;SDS011;58587;53.034;18.576;2023-02-02T10:14:26;14.10;;;3.65;;
70927;SDS011;58587;53.034;18.576;2023-02-02T10:20:02;19.98;;;12.10;;
70927;SDS011;58587;53.034;18.576;2023-02-02T10:22:46;13.60;;;4.75;;
70927;SDS011;58587;53.034;18.576;2023-02-02T10:25:13;5.60;;;1.50;;
70927;SDS011;58587;53.034;18.576;2023-02-02T10:27:40;6.80;;;2.33;;
70927;SDS011;58587;53.034;18.576;2023-02-02T10:30:18;13.02;;;3.60;;
70927;SDS011;58587;53.034;18.576;2023-02-02T10:32:51;16.25;;;3.70;;
70927;SDS011;58587;53.034;18.576;2023-02-02T10:35:33;4.90;;;1.87;;
70927;SDS011;58587;53.034;18.576;2023-02-02T10:38:17;10.98;;;2.67;;
70927;SDS011;58587;53.034;18.576;2023-02-02T10:41:19;11.77;;;3.00;;
70927;SDS011;58587;53.034;18.576;2023-02-02T10:44:07;17.40;;;4.32;;
70927;SDS011;58587;53.034;18.576;2023-02-02T10:46:52;10.15;;;2.63;;
70927;SDS011;58587;53.034;18.576;2023-02-02T11:00:21;23.35;;;5.75;;
70927;SDS011;58587;53.034;18.576;2023-02-02T11:02:49;10.60;;;6.30;;
70927;SDS011;58587;53.034;18.576;2023-02-02T11:05:20;46.17;;;30.98;;
70927;SDS011;58587;53.034;18.576;2023-02-02T11:08:19;19.77;;;8.13;;
70927;SDS011;58587;53.034;18.576;2023-02-02T11:10:52;7.43;;;2.40;;
70927;SDS011;58587;53.034;18.576;2023-02-02T11:13:29;8.90;;;2.45;;
70927;SDS011;58587;53.034;18.576;2023-02-02T11:18:41;36.53;;;6.88;;
70927;SDS011;58587;53.034;18.576;2023-02-02T11:23:55;14.05;;;2.95;;
70927;SDS011;58587;53.034;18.576;2023-02-02T11:26:40;45.28;;;8.07;;
70927;SDS011;58587;53.034;18.576;2023-02-02T11:31:55;18.02;;;3.22;;
70927;SDS011;58587;53.034;18.576;2023-02-02T11:34:22;6.97;;;1.38;;
70927;SDS011;58587;53.034;18.576;2023-02-02T11:37:02;2.73;;;0.60;;
70927;SDS011;58587;53.034;18.576;2023-02-02T11:39:39;19.27;;;3.70;;
70927;SDS011;58587;53.034;18.576;2023-02-02T11:42:07;16.55;;;3.42;;
70927;SDS011;58587;53.034;18.576;2023-02-02T11:44:40;41.22;;;8.02;;
70927;SDS011;58587;53.034;18.576;2023-02-02T11:47:15;12.02;;;6.28;;
70927;SDS011;58587;53.034;18.576;2023-02-02T11:49:44;31.52;;;21.00;;
70927;SDS011;58587;53.034;18.576;2023-02-02T11:52:17;6.53;;;1.83;;
70927;SDS011;58587;53.034;18.576;2023-02-02T11:54:46;10.23;;;3.22;;
70927;SDS011;58587;53.034;18.576;2023-02-02T11:57:18;3.80;;;1.10;;
70927;SDS011;58587;53.034;18.576;2023-02-02T11:59:46;7.13;;;2.03;;
70927;SDS011;58587;53.034;18.576;2023-02-02T12:04:44;21.30;;;4.95;;
70927;SDS011;58587;53.034;18.576;2023-02-02T12:07:18;25.58;;;5.45;;
70927;SDS011;58587;53.034;18.576;2023-02-02T12:09:48;46.60;;;8.52;;
70927;SDS011;58587;53.034;18.576;2023-02-02T12:12:22;11.27;;;2.35;;
70927;SDS011;58587;53.034;18.576;2023-02-02T12:17:44;11.88;;;2.35;;
70927;SDS011;58587;53.034;18.576;2023-02-02T12:23:04;24.43;;;4.23;;
70927;SDS011;58587;53.034;18.576;2023-02-02T12:30:48;37.90;;;7.10;;
70927;SDS011;58587;53.034;18.576;2023-02-02T12:36:16;24.38;;;16.40;;
70927;SDS011;58587;53.034;18.576;2023-02-02T12:43:55;9.47;;;2.77;;
70927;SDS011;58587;53.034;18.576;2023-02-02T12:49:21;11.13;;;2.33;;
70927;SDS011;58587;53.034;18.576;2023-02-02T12:54:54;6.93;;;1.30;;
70927;SDS011;58587;53.034;18.576;2023-02-02T12:57:37;15.77;;;3.53;;
70927;SDS011;58587;53.034;18.576;2023-02-02T13:00:25;43.28;;;8.60;;
70927;SDS011;58587;53.034;18.576;2023-02-02T13:08:55;21.20;;;4.53;;
70927;SDS011;58587;53.034;18.576;2023-02-02T13:11:47;10.53;;;2.17;;
70927;SDS011;58587;53.034;18.576;2023-02-02T13:14:24;19.42;;;4.05;;
70927;SDS011;58587;53.034;18.576;2023-02-02T13:17:01;20.45;;;4.60;;
70927;SDS011;58587;53.034;18.576;2023-02-02T13:19:40;6.32;;;4.20;;
70927;SDS011;58587;53.034;18.576;2023-02-02T13:22:11;29.30;;;21.23;;
70927;SDS011;58587;53.034;18.576;2023-02-02T13:24:41;17.17;;;6.80;;
70927;SDS011;58587;53.034;18.576;2023-02-02T13:27:10;7.45;;;2.53;;
70927;SDS011;58587;53.034;18.576;2023-02-02T13:29:50;5.93;;;1.77;;
70927;SDS011;58587;53.034;18.576;2023-02-02T13:32:22;1.33;;;0.50;;
70927;SDS011;58587;53.034;18.576;2023-02-02T13:35:00;45.00;;;8.30;;
70927;SDS011;58587;53.034;18.576;2023-02-02T13:37:35;22.83;;;7.67;;
70927;SDS011;58587;53.034;18.576;2023-02-02T13:59:13;19.75;;;3.72;;
70927;SDS011;58587;53.034;18.576;2023-02-02T14:01:49;9.70;;;2.20;;
70927;SDS011;58587;53.034;18.576;2023-02-02T14:04:26;28.35;;;8.85;;
70927;SDS011;58587;53.034;18.576;2023-02-02T14:06:58;25.97;;;20.57;;
70927;SDS011;58587;53.034;18.576;2023-02-02T14:09:29;31.20;;;13.73;;
70927;SDS011;58587;53.034;18.576;2023-02-02T14:11:58;8.10;;;2.95;;
70927;SDS011;58587;53.034;18.576;2023-02-02T14:14:26;8.77;;;3.00;;
70927;SDS011;58587;53.034;18.576;2023-02-02T14:22:37;8.15;;;2.53;;
70927;SDS011;58587;53.034;18.576;2023-02-02T14:28:44;8.98;;;1.55;;
70927;SDS011;58587;53.034;18.576;2023-02-02T14:31:15;16.17;;;3.33;;
70927;SDS011;58587;53.034;18.576;2023-02-02T14:33:50;11.07;;;3.87;;
70927;SDS011;58587;53.034;18.576;2023-02-02T14:36:15;51.00;;;12.32;;
70927;SDS011;58587;53.034;18.576;2023-02-02T14:44:21;29.05;;;6.22;;
70927;SDS011;58587;53.034;18.576;2023-02-02T14:46:47;33.13;;;8.50;;
70927;SDS011;58587;53.034;18.576;2023-02-02T14:49:13;33.67;;;13.87;;
70927;SDS011;58587;53.034;18.576;2023-02-02T14:51:45;39.72;;;23.98;;
70927;SDS011;58587;53.034;18.576;2023-02-02T14:54:18;31.67;;;11.20;;
70927;SDS011;58587;53.034;18.576;2023-02-02T14:56:51;6.73;;;3.07;;
70927;SDS011;58587;53.034;18.576;2023-02-02T15:02:14;14.20;;;5.25;;
70927;SDS011;58587;53.034;18.576;2023-02-02T15:04:36;45.45;;;12.75;;
70927;SDS011;58587;53.034;18.576;2023-02-02T15:09:50;11.18;;;3.60;;
70927;SDS011;58587;53.034;18.576;2023-02-02T15:12:27;7.18;;;2.35;;
70927;SDS011;58587;53.034;18.576;2023-02-02T15:20:12;17.02;;;3.85;;
70927;SDS011;58587;53.034;18.576;2023-02-02T15:31:00;23.08;;;6.03;;
70927;SDS011;58587;53.034;18.576;2023-02-02T15:33:36;25.55;;;7.20;;
70927;SDS011;58587;53.034;18.576;2023-02-02T15:36:05;23.90;;;6.68;;
70927;SDS011;58587;53.034;18.576;2023-02-02T15:38:37;22.60;;;14.73;;
70927;SDS011;58587;53.034;18.576;2023-02-02T15:41:06;32.80;;;20.90;;
70927;SDS011;58587;53.034;18.576;2023-02-02T15:43:50;38.80;;;15.93;;
70927;SDS011;58587;53.034;18.576;2023-02-02T15:46:18;6.50;;;3.28;;
70927;SDS011;58587;53.034;18.576;2023-02-02T15:49:33;4.85;;;1.90;;
70927;SDS011;58587;53.034;18.576;2023-02-02T15:51:46;5.55;;;2.05;;
70927;SDS011;58587;53.034;18.576;2023-02-02T15:56:53;11.30;;;3.47;;
70927;SDS011;58587;53.034;18.576;2023-02-02T15:59:24;11.85;;;3.25;;
70927;SDS011;58587;53.034;18.576;2023-02-02T16:04:38;36.90;;;7.32;;
70927;SDS011;58587;53.034;18.576;2023-02-02T16:07:11;17.33;;;4.03;;
70927;SDS011;58587;53.034;18.576;2023-02-02T16:09:39;6.33;;;1.60;;
70927;SDS011;58587;53.034;18.576;2023-02-02T16:12:07;6.20;;;1.50;;
70927;SDS011;58587;53.034;18.576;2023-02-02T16:14:38;30.20;;;5.93;;
70927;SDS011;58587;53.034;18.576;2023-02-02T16:19:56;16.90;;;4.22;;
70927;SDS011;58587;53.034;18.576;2023-02-02T16:22:31;14.93;;;3.90;;
70927;SDS011;58587;53.034;18.576;2023-02-02T16:24:58;16.75;;;4.68;;
70927;SDS011;58587;53.034;18.576;2023-02-02T16:27:26;17.23;;;10.65;;
70927;SDS011;58587;53.034;18.576;2023-02-02T16:29:54;45.33;;;31.33;;
70927;SDS011;58587;53.034;18.576;2023-02-02T16:32:35;12.73;;;6.13;;
70927;SDS011;58587;53.034;18.576;2023-02-02T16:35:04;7.50;;;3.27;;
70927;SDS011;58587;53.034;18.576;2023-02-02T16:37:32;6.20;;;2.60;;
70927;SDS011;58587;53.034;18.576;2023-02-02T16:45:59;56.78;;;10.68;;
70927;SDS011;58587;53.034;18.576;2023-02-02T16:48:32;22.73;;;5.73;;
70927;SDS011;58587;53.034;18.576;2023-02-02T16:53:40;30.00;;;7.40;;
70927;SDS011;58587;53.034;18.576;2023-02-02T16:56:24;45.63;;;11.52;;
70927;SDS011;58587;53.034;18.576;2023-02-02T16:59:14;38.10;;;8.48;;
70927;SDS011;58587;53.034;18.576;2023-02-02T17:02:02;41.30;;;8.57;;
70927;SDS011;58587;53.034;18.576;2023-02-02T17:04:40;18.13;;;7.25;;
70927;SDS011;58587;53.034;18.576;2023-02-02T17:07:12;23.48;;;9.55;;
70927;SDS011;58587;53.034;18.576;2023-02-02T17:09:41;33.65;;;9.95;;
70927;SDS011;58587;53.034;18.576;2023-02-02T17:14:52;57.03;;;31.57;;
70927;SDS011;58587;53.034;18.576;2023-02-02T17:17:17;82.80;;;27.85;;
70927;SDS011;58587;53.034;18.576;2023-02-02T17:19:42;24.97;;;9.03;;
70927;SDS011;58587;53.034;18.576;2023-02-02T17:22:08;16.92;;;6.15;;
70927;SDS011;58587;53.034;18.576;2023-02-02T17:24:34;31.70;;;11.50;;
70927;SDS011;58587;53.034;18.576;2023-02-02T17:26:59;43.47;;;11.00;;
70927;SDS011;58587;53.034;18.576;2023-02-02T17:29:25;31.05;;;7.72;;
70927;SDS011;58587;53.034;18.576;2023-02-02T17:31:51;9.93;;;3.30;;
70927;SDS011;58587;53.034;18.576;2023-02-02T17:34:17;25.38;;;7.38;;
70927;SDS011;58587;53.034;18.576;2023-02-02T17:36:43;33.03;;;8.30;;
70927;SDS011;58587;53.034;18.576;2023-02-02T17:39:09;10.20;;;3.87;;
70927;SDS011;58587;53.034;18.576;2023-02-02T17:41:35;9.38;;;2.42;;
70927;SDS011;58587;53.034;18.576;2023-02-02T17:44:01;20.55;;;4.10;;
70927;SDS011;58587;53.034;18.576;2023-02-02T17:46:28;37.10;;;5.97;;
70927;SDS011;58587;53.034;18.576;2023-02-02T17:48:55;17.90;;;3.80;;
70927;SDS011;58587;53.034;18.576;2023-02-02T17:51:21;7.93;;;1.90;;
70927;SDS011;58587;53.034;18.576;2023-02-02T17:53:46;32.23;;;5.27;;
70927;SDS011;58587;53.034;18.576;2023-02-02T17:56:12;20.88;;;3.83;;
70927;SDS011;58587;53.034;18.576;2023-02-02T17:58:37;35.10;;;7.03;;
70927;SDS011;58587;53.034;18.576;2023-02-02T18:01:02;64.70;;;32.13;;
70927;SDS011;58587;53.034;18.576;2023-02-02T18:03:29;46.00;;;24.03;;
70927;SDS011;58587;53.034;18.576;2023-02-02T18:05:57;25.05;;;8.45;;
70927;SDS011;58587;53.034;18.576;2023-02-02T18:08:25;25.92;;;7.22;;
70927;SDS011;58587;53.034;18.576;2023-02-02T18:10:50;10.20;;;3.03;;
70927;SDS011;58587;53.034;18.576;2023-02-02T18:13:16;13.77;;;5.07;;
70927;SDS011;58587;53.034;18.576;2023-02-02T18:15:43;10.40;;;3.30;;
70927;SDS011;58587;53.034;18.576;2023-02-02T18:18:09;15.13;;;5.05;;
70927;SDS011;58587;53.034;18.576;2023-02-02T18:20:48;21.88;;;6.25;;
70927;SDS011;58587;53.034;18.576;2023-02-02T18:23:14;41.80;;;9.97;;
70927;SDS011;58587;53.034;18.576;2023-02-02T18:25:40;64.05;;;14.80;;
70927;SDS011;58587;53.034;18.576;2023-02-02T18:28:06;43.55;;;15.63;;
70927;SDS011;58587;53.034;18.576;2023-02-02T18:30:32;33.57;;;8.20;;
70927;SDS011;58587;53.034;18.576;2023-02-02T18:32:58;37.13;;;9.45;;
70927;SDS011;58587;53.034;18.576;2023-02-02T18:35:23;30.70;;;9.77;;
70927;SDS011;58587;53.034;18.576;2023-02-02T18:37:49;38.50;;;9.40;;
70927;SDS011;58587;53.034;18.576;2023-02-02T18:40:15;35.33;;;9.75;;
70927;SDS011;58587;53.034;18.576;2023-02-02T18:42:41;22.30;;;6.82;;
70927;SDS011;58587;53.034;18.576;2023-02-02T18:45:07;27.63;;;7.17;;
70927;SDS011;58587;53.034;18.576;2023-02-02T18:47:32;23.38;;;7.15;;
70927;SDS011;58587;53.034;18.576;2023-02-02T18:49:57;74.57;;;33.33;;
70927;SDS011;58587;53.034;18.576;2023-02-02T18:52:23;63.03;;;41.33;;
70927;SDS011;58587;53.034;18.576;2023-02-02T18:54:48;10.80;;;5.73;;
70927;SDS011;58587;53.034;18.576;2023-02-02T18:57:14;11.63;;;4.17;;
70927;SDS011;58587;53.034;18.576;2023-02-02T18:59:40;10.82;;;5.53;;
70927;SDS011;58587;53.034;18.576;2023-02-02T19:02:06;7.63;;;3.70;;
70927;SDS011;58587;53.034;18.576;2023-02-02T19:04:35;7.97;;;2.93;;
70927;SDS011;58587;53.034;18.576;2023-02-02T19:07:00;39.45;;;10.10;;
70927;SDS011;58587;53.034;18.576;2023-02-02T19:09:43;52.60;;;11.00;;
70927;SDS011;58587;53.034;18.576;2023-02-02T19:12:12;69.47;;;20.90;;
70927;SDS011;58587;53.034;18.576;2023-02-02T19:14:39;52.45;;;12.57;;
70927;SDS011;58587;53.034;18.576;2023-02-02T19:17:19;21.45;;;6.30;;
70927;SDS011;58587;53.034;18.576;2023-02-02T19:19:46;103.50;;;25.35;;
70927;SDS011;58587;53.034;18.576;2023-02-02T19:22:16;89.50;;;21.23;;
70927;SDS011;58587;53.034;18.576;2023-02-02T19:24:43;66.17;;;16.63;;
70927;SDS011;58587;53.034;18.576;2023-02-02T19:27:19;66.63;;;14.77;;
70927;SDS011;58587;53.034;18.576;2023-02-02T19:29:48;95.00;;;23.43;;
70927;SDS011;58587;53.034;18.576;2023-02-02T19:32:19;93.55;;;23.80;;
70927;SDS011;58587;53.034;18.576;2023-02-02T19:34:55;191.13;;;49.83;;
70927;SDS011;58587;53.034;18.576;2023-02-02T19:39:52;206.43;;;67.07;;
70927;SDS011;58587;53.034;18.576;2023-02-02T19:42:19;79.97;;;23.97;;
70927;SDS011;58587;53.034;18.576;2023-02-02T19:44:44;156.43;;;44.70;;
70927;SDS011;58587;53.034;18.576;2023-02-02T19:47:17;97.43;;;29.57;;
70927;SDS011;58587;53.034;18.576;2023-02-02T19:49:47;151.55;;;41.40;;
70927;SDS011;58587;53.034;18.576;2023-02-02T19:52:17;97.37;;;24.67;;
70927;SDS011;58587;53.034;18.576;2023-02-02T19:54:46;47.28;;;14.23;;
70927;SDS011;58587;53.034;18.576;2023-02-02T19:57:18;26.92;;;8.45;;
70927;SDS011;58587;53.034;18.576;2023-02-02T19:59:48;51.08;;;13.70;;
70927;SDS011;58587;53.034;18.576;2023-02-02T20:02:24;84.37;;;20.77;;
70927;SDS011;58587;53.034;18.576;2023-02-02T20:05:15;59.20;;;15.40;;
70927;SDS011;58587;53.034;18.576;2023-02-02T20:07:41;47.55;;;13.90;;
70927;SDS011;58587;53.034;18.576;2023-02-02T20:13:09;23.98;;;6.97;;
70927;SDS011;58587;53.034;18.576;2023-02-02T20:15:38;15.13;;;4.70;;
70927;SDS011;58587;53.034;18.576;2023-02-02T20:18:05;65.43;;;18.90;;
70927;SDS011;58587;53.034;18.576;2023-02-02T20:20:38;97.70;;;25.88;;
70927;SDS011;58587;53.034;18.576;2023-02-02T20:26:10;26.73;;;11.60;;
70927;SDS011;58587;53.034;18.576;2023-02-02T20:28:41;15.43;;;6.82;;
70927;SDS011;58587;53.034;18.576;2023-02-02T20:31:19;22.45;;;9.27;;
70927;SDS011;58587;53.034;18.576;2023-02-02T20:33:48;7.30;;;2.28;;
70927;SDS011;58587;53.034;18.576;2023-02-02T20:36:33;43.80;;;11.90;;
70927;SDS011;58587;53.034;18.576;2023-02-02T20:39:05;19.00;;;7.40;;
70927;SDS011;58587;53.034;18.576;2023-02-02T20:41:45;31.42;;;13.13;;
70927;SDS011;58587;53.034;18.576;2023-02-02T20:44:11;80.88;;;23.10;;
70927;SDS011;58587;53.034;18.576;2023-02-02T20:46:37;50.03;;;16.63;;
70927;SDS011;58587;53.034;18.576;2023-02-02T20:49:02;34.27;;;12.70;;
70927;SDS011;58587;53.034;18.576;2023-02-02T20:51:27;32.37;;;10.83;;
70927;SDS011;58587;53.034;18.576;2023-02-02T20:53:53;30.48;;;9.57;;
70927;SDS011;58587;53.034;18.576;2023-02-02T20:56:21;18.85;;;7.20;;
70927;SDS011;58587;53.034;18.576;2023-02-02T20:58:47;25.50;;;10.47;;
70927;SDS011;58587;53.034;18.576;2023-02-02T21:01:13;7.18;;;2.75;;
70927;SDS011;58587;53.034;18.576;2023-02-02T21:03:38;8.40;;;1.77;;
70927;SDS011;58587;53.034;18.576;2023-02-02T21:06:04;46.73;;;19.63;;
70927;SDS011;58587;53.034;18.576;2023-02-02T21:08:29;24.63;;;8.88;;
70927;SDS011;58587;53.034;18.576;2023-02-02T21:10:55;6.30;;;2.13;;
70927;SDS011;58587;53.034;18.576;2023-02-02T21:13:21;4.22;;;1.35;;
70927;SDS011;58587;53.034;18.576;2023-02-02T21:15:46;7.60;;;2.87;;
70927;SDS011;58587;53.034;18.576;2023-02-02T21:18:12;3.33;;;1.20;;
70927;SDS011;58587;53.034;18.576;2023-02-02T21:20:38;7.63;;;2.72;;
70927;SDS011;58587;53.034;18.576;2023-02-02T21:23:03;9.23;;;2.17;;
70927;SDS011;58587;53.034;18.576;2023-02-02T21:25:28;5.40;;;2.50;;
70927;SDS011;58587;53.034;18.576;2023-02-02T21:27:54;8.87;;;3.87;;
70927;SDS011;58587;53.034;18.576;2023-02-02T21:30:20;18.23;;;6.00;;
70927;SDS011;58587;53.034;18.576;2023-02-02T21:32:45;23.33;;;7.93;;
70927;SDS011;58587;53.034;18.576;2023-02-02T21:35:11;10.17;;;4.30;;
70927;SDS011;58587;53.034;18.576;2023-02-02T21:37:36;23.85;;;9.68;;
70927;SDS011;58587;53.034;18.576;2023-02-02T21:40:06;47.75;;;16.80;;
70927;SDS011;58587;53.034;18.576;2023-02-02T21:42:37;69.67;;;18.60;;
70927;SDS011;58587;53.034;18.576;2023-02-02T21:47:48;42.80;;;13.55;;
70927;SDS011;58587;53.034;18.576;2023-02-02T21:50:16;34.63;;;12.77;;
70927;SDS011;58587;53.034;18.576;2023-02-02T21:52:52;116.20;;;41.67;;
70927;SDS011;58587;53.034;18.576;2023-02-02T21:55:40;116.32;;;44.78;;
70927;SDS011;58587;53.034;18.576;2023-02-02T21:58:25;140.87;;;44.17;;
70927;SDS011;58587;53.034;18.576;2023-02-02T22:00:57;124.40;;;33.67;;
70927;SDS011;58587;53.034;18.576;2023-02-02T22:03:36;125.78;;;31.05;;
70927;SDS011;58587;53.034;18.576;2023-02-02T22:08:39;23.73;;;5.88;;
70927;SDS011;58587;53.034;18.576;2023-02-02T22:11:20;81.57;;;17.67;;
70927;SDS011;58587;53.034;18.576;2023-02-02T22:13:48;111.15;;;22.90;;
70927;SDS011;58587;53.034;18.576;2023-02-02T22:16:18;114.57;;;22.13;;
70927;SDS011;58587;53.034;18.576;2023-02-02T22:18:44;40.30;;;12.27;;
70927;SDS011;58587;53.034;18.576;2023-02-02T22:21:13;16.52;;;4.88;;
70927;SDS011;58587;53.034;18.576;2023-02-02T22:23:41;10.00;;;3.57;;
70927;SDS011;58587;53.034;18.576;2023-02-02T22:26:07;8.57;;;2.35;;
70927;SDS011;58587;53.034;18.576;2023-02-02T22:28:43;6.77;;;2.30;;
70927;SDS011;58587;53.034;18.576;2023-02-02T22:31:08;24.02;;;4.75;;
70927;SDS011;58587;53.034;18.576;2023-02-02T22:33:34;9.10;;;3.23;;
70927;SDS011;58587;53.034;18.576;2023-02-02T22:35:59;7.30;;;2.17;;
70927;SDS011;58587;53.034;18.576;2023-02-02T22:38:25;7.30;;;3.00;;
70927;SDS011;58587;53.034;18.576;2023-02-02T22:40:50;9.63;;;3.37;;
70927;SDS011;58587;53.034;18.576;2023-02-02T22:43:16;11.68;;;5.55;;
70927;SDS011;58587;53.034;18.576;2023-02-02T22:45:43;11.82;;;4.82;;
70927;SDS011;58587;53.034;18.576;2023-02-02T22:48:09;7.22;;;2.65;;
70927;SDS011;58587;53.034;18.576;2023-02-02T22:50:36;9.17;;;4.63;;
70927;SDS011;58587;53.034;18.576;2023-02-02T22:53:02;8.18;;;3.63;;
70927;SDS011;58587;53.034;18.576;2023-02-02T22:55:28;9.05;;;3.97;;
70927;SDS011;58587;53.034;18.576;2023-02-02T22:57:54;10.30;;;3.95;;
70927;SDS011;58587;53.034;18.576;2023-02-02T23:00:20;8.33;;;3.83;;
70927;SDS011;58587;53.034;18.576;2023-02-02T23:02:48;8.60;;;3.27;;
70927;SDS011;58587;53.034;18.576;2023-02-02T23:05:15;7.05;;;3.13;;
70927;SDS011;58587;53.034;18.576;2023-02-02T23:07:42;5.07;;;1.90;;
70927;SDS011;58587;53.034;18.576;2023-02-02T23:10:09;9.52;;;2.60;;
70927;SDS011;58587;53.034;18.576;2023-02-02T23:12:40;7.77;;;2.40;;
70927;SDS011;58587;53.034;18.576;2023-02-02T23:15:07;6.82;;;2.45;;
70927;SDS011;58587;53.034;18.576;2023-02-02T23:17:33;13.27;;;4.70;;
70927;SDS011;58587;53.034;18.576;2023-02-02T23:20:02;8.65;;;3.20;;
70927;SDS011;58587;53.034;18.576;2023-02-02T23:22:29;11.20;;;3.95;;
70927;SDS011;58587;53.034;18.576;2023-02-02T23:24:54;30.37;;;10.63;;